createdAt,value
2022-08-25T00:00:35.742Z,1010.09
2022-08-25T00:01:35.732Z,1010.05
2022-08-25T00:02:35.812Z,1010.02
2022-08-25T00:03:36.023Z,1010.06
2022-08-25T00:04:35.705Z,1010.01
2022-08-25T00:05:35.748Z,1010.03
2022-08-25T00:06:35.674Z,1009.98
2022-08-25T00:07:35.673Z,1009.94
2022-08-25T00:08:35.655Z,1009.96
2022-08-25T00:09:35.645Z,1009.96
2022-08-25T00:10:35.635Z,1010.00
2022-08-25T00:11:35.625Z,1009.97
2022-08-25T00:12:35.728Z,1009.97
2022-08-25T00:13:35.597Z,1010.01
2022-08-25T00:14:35.636Z,1009.98
2022-08-25T00:15:35.604Z,1009.95
2022-08-25T00:16:35.566Z,1009.99
2022-08-25T00:17:35.568Z,1010.01
2022-08-25T00:18:35.539Z,1010.02
2022-08-25T00:19:35.559Z,1010.01
2022-08-25T00:20:35.554Z,1010.01
2022-08-25T00:21:35.510Z,1009.99
2022-08-25T00:22:35.510Z,1009.96
2022-08-25T00:23:35.499Z,1009.98
2022-08-25T00:24:35.484Z,1009.99
2022-08-25T00:25:35.482Z,1009.99
2022-08-25T00:26:35.471Z,1009.98
2022-08-25T00:27:35.451Z,1009.99
2022-08-25T00:28:35.433Z,1009.99
2022-08-25T00:29:35.430Z,1010.00
2022-08-25T00:30:35.411Z,1010.00
2022-08-25T00:31:38.879Z,1010.00
2022-08-25T00:32:35.402Z,1009.99
2022-08-25T00:33:35.394Z,1010.02
2022-08-25T00:34:35.363Z,1009.99
2022-08-25T00:35:35.366Z,1010.00
2022-08-25T00:36:35.345Z,1009.98
2022-08-25T00:37:35.354Z,1009.97
2022-08-25T00:38:35.329Z,1010.00
2022-08-25T00:39:35.314Z,1009.99
2022-08-25T00:40:35.305Z,1010.01
2022-08-25T00:41:35.297Z,1010.04
2022-08-25T00:42:35.285Z,1009.98
2022-08-25T00:43:35.279Z,1009.97
2022-08-25T00:44:35.258Z,1009.96
2022-08-25T00:45:35.248Z,1009.97
2022-08-25T00:46:35.280Z,1009.97
2022-08-25T00:47:35.288Z,1009.95
2022-08-25T00:48:35.209Z,1009.96
2022-08-25T00:49:35.207Z,1009.95
2022-08-25T00:50:35.193Z,1010.01
2022-08-25T00:51:35.191Z,1009.99
2022-08-25T00:52:35.200Z,1009.98
2022-08-25T00:53:35.161Z,1009.98
2022-08-25T00:54:35.141Z,1009.95
2022-08-25T00:55:35.150Z,1009.98
2022-08-25T00:56:35.133Z,1009.98
2022-08-25T00:57:35.229Z,1009.98
2022-08-25T00:58:35.101Z,1009.98
2022-08-25T00:59:35.112Z,1010.00
2022-08-25T01:00:35.083Z,1010.03
2022-08-25T01:01:35.135Z,1010.01
2022-08-25T01:02:35.124Z,1010.03
2022-08-25T01:03:35.906Z,1010.04
2022-08-25T01:04:35.094Z,1010.04
2022-08-25T01:05:35.041Z,1010.04
2022-08-25T01:06:35.015Z,1010.01
2022-08-25T01:07:35.015Z,1009.99
2022-08-25T01:08:34.995Z,1010.00
2022-08-25T01:09:34.983Z,1010.02
2022-08-25T01:10:34.984Z,1010.01
2022-08-25T01:11:34.966Z,1010.03
2022-08-25T01:12:34.959Z,1010.03
2022-08-25T01:13:34.984Z,1010.04
2022-08-25T01:14:34.926Z,1010.05
2022-08-25T01:15:34.958Z,1010.05
2022-08-25T01:16:34.902Z,1010.02
2022-08-25T01:17:34.908Z,1010.02
2022-08-25T01:18:34.888Z,1010.03
2022-08-25T01:19:34.879Z,1010.01
2022-08-25T01:20:34.860Z,1009.97
2022-08-25T01:21:34.849Z,1010.02
2022-08-25T01:22:34.848Z,1010.05
2022-08-25T01:23:34.830Z,1010.02
2022-08-25T01:24:34.811Z,1010.02
2022-08-25T01:25:34.913Z,1010.04
2022-08-25T01:26:34.791Z,1010.01
2022-08-25T01:27:34.792Z,1010.03
2022-08-25T01:28:34.772Z,1010.02
2022-08-25T01:29:34.763Z,1010.06
2022-08-25T01:30:34.772Z,1010.06
2022-08-25T01:31:34.892Z,1010.06
2022-08-25T01:32:34.732Z,1010.09
2022-08-25T01:33:34.721Z,1010.06
2022-08-25T01:34:34.712Z,1010.06
2022-08-25T01:35:34.702Z,1010.06
2022-08-25T01:36:34.674Z,1010.06
2022-08-25T01:37:34.685Z,1010.03
2022-08-25T01:38:34.661Z,1010.06
2022-08-25T01:39:34.663Z,1010.08
2022-08-25T01:40:34.634Z,1010.07
2022-08-25T01:41:34.635Z,1010.08
2022-08-25T01:42:34.624Z,1010.05
2022-08-25T01:43:34.607Z,1010.03
2022-08-25T01:44:34.594Z,1010.04
2022-08-25T01:45:34.585Z,1010.06
2022-08-25T01:46:34.624Z,1010.03
2022-08-25T01:47:34.577Z,1010.04
2022-08-25T01:48:34.571Z,1010.02
2022-08-25T01:49:34.539Z,1010.01
2022-08-25T01:50:34.529Z,1010.01
2022-08-25T01:51:34.532Z,1010.01
2022-08-25T01:52:34.598Z,1010.01
2022-08-25T01:53:34.498Z,1009.99
2022-08-25T01:54:34.480Z,1010.02
2022-08-25T01:55:34.564Z,1009.99
2022-08-25T01:56:34.464Z,1010.00
2022-08-25T01:57:34.459Z,1010.01
2022-08-25T01:58:34.441Z,1010.05
2022-08-25T01:59:34.432Z,1010.06
2022-08-25T02:00:34.423Z,1010.06
2022-08-25T02:01:34.562Z,1010.08
2022-08-25T02:02:34.463Z,1010.09
2022-08-25T02:03:34.383Z,1010.11
2022-08-25T02:04:34.382Z,1010.08
2022-08-25T02:05:34.362Z,1010.07
2022-08-25T02:06:34.353Z,1010.04
2022-08-25T02:07:34.382Z,1010.08
2022-08-25T02:08:34.340Z,1010.07
2022-08-25T02:09:34.314Z,1010.09
2022-08-25T02:10:34.319Z,1010.09
2022-08-25T02:11:34.321Z,1010.12
2022-08-25T02:12:34.304Z,1010.14
2022-08-25T02:13:34.297Z,1010.12
2022-08-25T02:14:34.275Z,1010.14
2022-08-25T02:15:34.247Z,1010.15
2022-08-25T02:16:34.341Z,1010.16
2022-08-25T02:17:34.247Z,1010.20
2022-08-25T02:18:34.226Z,1010.17
2022-08-25T02:19:34.216Z,1010.17
2022-08-25T02:20:34.215Z,1010.19
2022-08-25T02:21:34.180Z,1010.16
2022-08-25T02:22:34.198Z,1010.18
2022-08-25T02:23:34.168Z,1010.21
2022-08-25T02:24:34.169Z,1010.23
2022-08-25T02:25:34.139Z,1010.21
2022-08-25T02:26:34.148Z,1010.23
2022-08-25T02:27:34.129Z,1010.23
2022-08-25T02:28:34.128Z,1010.25
2022-08-25T02:29:34.106Z,1010.24
2022-08-25T02:30:34.138Z,1010.23
2022-08-25T02:31:34.079Z,1010.23
2022-08-25T02:32:34.086Z,1010.23
2022-08-25T02:33:34.051Z,1010.26
2022-08-25T02:34:34.071Z,1010.24
2022-08-25T02:35:34.032Z,1010.24
2022-08-25T02:36:34.023Z,1010.25
2022-08-25T02:37:34.025Z,1010.22
2022-08-25T02:38:34.001Z,1010.24
2022-08-25T02:39:33.984Z,1010.26
2022-08-25T02:40:33.985Z,1010.28
2022-08-25T02:41:33.974Z,1010.27
2022-08-25T02:42:33.996Z,1010.25
2022-08-25T02:43:33.935Z,1010.25
2022-08-25T02:44:33.937Z,1010.21
2022-08-25T02:45:33.942Z,1010.21
2022-08-25T02:46:33.916Z,1010.20
2022-08-25T02:47:33.916Z,1010.19
2022-08-25T02:48:33.906Z,1010.13
2022-08-25T02:49:33.876Z,1010.16
2022-08-25T02:50:33.867Z,1010.13
2022-08-25T02:51:33.847Z,1010.10
2022-08-25T02:52:33.973Z,1010.08
2022-08-25T02:53:33.829Z,1010.03
2022-08-25T02:54:33.828Z,1010.06
2022-08-25T02:55:34.584Z,1010.04
2022-08-25T02:56:33.799Z,1010.02
2022-08-25T02:57:33.790Z,1010.06
2022-08-25T02:58:33.779Z,1010.02
2022-08-25T02:59:33.763Z,1010.06
2022-08-25T03:00:33.752Z,1010.03
2022-08-25T03:01:33.817Z,1010.07
2022-08-25T03:02:33.741Z,1010.02
2022-08-25T03:03:38.836Z,1009.98
2022-08-25T03:04:34.737Z,1010.00
2022-08-25T03:05:33.705Z,1010.03
2022-08-25T03:06:33.691Z,1010.03
2022-08-25T03:07:35.494Z,1009.96
2022-08-25T03:08:33.675Z,1009.99
2022-08-25T03:09:34.228Z,1009.93
2022-08-25T03:10:33.653Z,1009.93
2022-08-25T03:11:33.633Z,1009.92
2022-08-25T03:12:33.635Z,1009.88
2022-08-25T03:13:33.745Z,1009.87
2022-08-25T03:14:33.622Z,1009.86
2022-08-25T03:15:33.626Z,1009.83
2022-08-25T03:16:33.629Z,1009.79
2022-08-25T03:17:33.595Z,1009.83
2022-08-25T03:18:33.570Z,1009.80
2022-08-25T03:19:33.562Z,1009.80
2022-08-25T03:20:33.542Z,1009.83
2022-08-25T03:21:33.548Z,1009.82
2022-08-25T03:22:33.552Z,1009.80
2022-08-25T03:23:33.516Z,1009.82
2022-08-25T03:24:33.491Z,1009.81
2022-08-25T03:25:33.488Z,1009.83
2022-08-25T03:26:33.479Z,1009.82
2022-08-25T03:27:33.477Z,1009.80
2022-08-25T03:28:33.447Z,1009.80
2022-08-25T03:29:33.447Z,1009.81
2022-08-25T03:30:33.439Z,1009.79
2022-08-25T03:31:33.464Z,1009.73
2022-08-25T03:32:33.419Z,1009.75
2022-08-25T03:33:33.402Z,1009.72
2022-08-25T03:34:33.391Z,1009.77
2022-08-25T03:35:33.380Z,1009.75
2022-08-25T03:36:33.360Z,1009.75
2022-08-25T03:37:33.401Z,1009.74
2022-08-25T03:38:33.351Z,1009.79
2022-08-25T03:39:33.337Z,1009.79
2022-08-25T03:40:33.442Z,1009.75
2022-08-25T03:41:33.313Z,1009.79
2022-08-25T03:42:33.313Z,1009.76
2022-08-25T03:43:33.294Z,1009.77
2022-08-25T03:44:33.287Z,1009.75
2022-08-25T03:45:33.318Z,1009.74
2022-08-25T03:46:33.255Z,1009.71
2022-08-25T03:47:33.256Z,1009.70
2022-08-25T03:48:33.244Z,1009.66
2022-08-25T03:49:33.233Z,1009.68
2022-08-25T03:50:33.214Z,1009.68
2022-08-25T03:51:33.202Z,1009.66
2022-08-25T03:52:33.185Z,1009.64
2022-08-25T03:53:33.215Z,1009.63
2022-08-25T03:54:33.175Z,1009.63
2022-08-25T03:55:33.166Z,1009.64
2022-08-25T03:56:33.162Z,1009.57
2022-08-25T03:57:33.149Z,1009.53
2022-08-25T03:58:33.126Z,1009.53
2022-08-25T03:59:33.118Z,1009.50
2022-08-25T04:00:33.097Z,1009.46
2022-08-25T04:01:33.149Z,1009.47
2022-08-25T04:02:33.136Z,1009.46
2022-08-25T04:03:33.070Z,1009.43
2022-08-25T04:04:33.068Z,1009.45
2022-08-25T04:05:33.060Z,1009.45
2022-08-25T04:06:33.032Z,1009.49
2022-08-25T04:07:33.040Z,1009.51
2022-08-25T04:08:33.010Z,1009.48
2022-08-25T04:09:36.741Z,1009.55
2022-08-25T04:10:32.990Z,1009.57
2022-08-25T04:11:32.983Z,1009.60
2022-08-25T04:12:33.032Z,1009.55
2022-08-25T04:13:32.962Z,1009.54
2022-08-25T04:14:32.968Z,1009.56
2022-08-25T04:15:32.933Z,1009.55
2022-08-25T04:16:32.972Z,1009.55
2022-08-25T04:17:32.953Z,1009.54
2022-08-25T04:18:32.893Z,1009.57
2022-08-25T04:19:32.892Z,1009.56
2022-08-25T04:20:32.903Z,1009.59
2022-08-25T04:21:32.863Z,1009.56
2022-08-25T04:22:32.865Z,1009.55
2022-08-25T04:23:32.965Z,1009.55
2022-08-25T04:24:32.834Z,1009.58
2022-08-25T04:25:32.837Z,1009.61
2022-08-25T04:26:32.875Z,1009.58
2022-08-25T04:27:32.816Z,1009.59
2022-08-25T04:28:32.886Z,1009.61
2022-08-25T04:29:32.786Z,1009.64
2022-08-25T04:30:32.768Z,1009.63
2022-08-25T04:31:32.794Z,1009.64
2022-08-25T04:32:32.766Z,1009.61
2022-08-25T04:33:32.752Z,1009.59
2022-08-25T04:34:32.727Z,1009.56
2022-08-25T04:35:32.721Z,1009.58
2022-08-25T04:36:32.818Z,1009.55
2022-08-25T04:37:32.707Z,1009.55
2022-08-25T04:38:32.678Z,1009.54
2022-08-25T04:39:32.668Z,1009.54
2022-08-25T04:40:32.693Z,1009.56
2022-08-25T04:41:32.658Z,1009.56
2022-08-25T04:42:32.640Z,1009.54
2022-08-25T04:43:32.622Z,1009.54
2022-08-25T04:44:32.610Z,1009.57
2022-08-25T04:45:32.638Z,1009.53
2022-08-25T04:46:32.591Z,1009.55
2022-08-25T04:47:32.592Z,1009.52
2022-08-25T04:48:32.563Z,1009.60
2022-08-25T04:49:32.563Z,1009.56
2022-08-25T04:50:32.553Z,1009.57
2022-08-25T04:51:32.533Z,1009.58
2022-08-25T04:52:32.541Z,1009.57
2022-08-25T04:53:32.533Z,1009.56
2022-08-25T04:54:37.401Z,1009.58
2022-08-25T04:55:33.497Z,1009.57
2022-08-25T04:56:32.484Z,1009.55
2022-08-25T04:57:32.504Z,1009.57
2022-08-25T04:58:32.463Z,1009.52
2022-08-25T04:59:32.457Z,1009.54
2022-08-25T05:00:32.437Z,1009.53
2022-08-25T05:01:32.456Z,1009.52
2022-08-25T05:02:32.437Z,1009.51
2022-08-25T05:03:32.414Z,1009.51
2022-08-25T05:04:32.414Z,1009.52
2022-08-25T05:05:32.389Z,1009.52
2022-08-25T05:06:32.365Z,1009.55
2022-08-25T05:07:32.378Z,1009.55
2022-08-25T05:08:32.375Z,1009.55
2022-08-25T05:09:32.997Z,1009.55
2022-08-25T05:10:32.321Z,1009.55
2022-08-25T05:11:32.318Z,1009.54
2022-08-25T05:12:33.039Z,1009.57
2022-08-25T05:13:32.301Z,1009.59
2022-08-25T05:14:32.279Z,1009.58
2022-08-25T05:15:32.277Z,1009.53
2022-08-25T05:16:32.287Z,1009.55
2022-08-25T05:17:32.392Z,1009.50
2022-08-25T05:18:32.230Z,1009.52
2022-08-25T05:19:32.230Z,1009.52
2022-08-25T05:20:32.215Z,1009.49
2022-08-25T05:21:32.201Z,1009.53
2022-08-25T05:22:32.212Z,1009.50
2022-08-25T05:23:32.184Z,1009.51
2022-08-25T05:24:32.172Z,1009.51
2022-08-25T05:25:32.162Z,1009.49
2022-08-25T05:26:32.142Z,1009.49
2022-08-25T05:27:32.234Z,1009.47
2022-08-25T05:28:36.963Z,1009.45
2022-08-25T05:29:32.621Z,1009.45
2022-08-25T05:30:32.521Z,1009.42
2022-08-25T05:31:32.513Z,1009.42
2022-08-25T05:32:32.318Z,1009.40
2022-08-25T05:33:32.410Z,1009.42
2022-08-25T05:34:32.529Z,1009.41
2022-08-25T05:35:32.137Z,1009.41
2022-08-25T05:36:32.046Z,1009.45
2022-08-25T05:37:32.051Z,1009.42
2022-08-25T05:38:32.022Z,1009.44
2022-08-25T05:39:32.021Z,1009.40
2022-08-25T05:40:32.089Z,1009.41
2022-08-25T05:41:31.989Z,1009.40
2022-08-25T05:42:31.978Z,1009.35
2022-08-25T05:43:31.972Z,1009.35
2022-08-25T05:44:31.949Z,1009.36
2022-08-25T05:45:31.967Z,1009.33
2022-08-25T05:46:31.972Z,1009.34
2022-08-25T05:47:31.940Z,1009.34
2022-08-25T05:48:31.909Z,1009.34
2022-08-25T05:49:31.899Z,1009.33
2022-08-25T05:50:31.890Z,1009.30
2022-08-25T05:51:31.883Z,1009.28
2022-08-25T05:52:31.903Z,1009.31
2022-08-25T05:53:34.109Z,1009.26
2022-08-25T05:54:31.840Z,1009.25
2022-08-25T05:55:31.850Z,1009.21
2022-08-25T05:57:23.021Z,1009.21
2022-08-25T05:58:23.001Z,1009.18
2022-08-25T05:59:23.000Z,1009.20
2022-08-25T06:00:23.015Z,1009.20
2022-08-25T06:01:23.078Z,1009.19
2022-08-25T06:02:22.963Z,1009.23
2022-08-25T06:03:23.022Z,1009.22
2022-08-25T06:04:22.933Z,1009.20
2022-08-25T06:05:22.933Z,1009.22
2022-08-25T06:06:22.929Z,1009.27
2022-08-25T06:07:22.914Z,1009.22
2022-08-25T06:08:22.895Z,1009.25
2022-08-25T06:09:22.885Z,1009.21
2022-08-25T06:10:22.896Z,1009.24
2022-08-25T06:11:22.883Z,1009.23
2022-08-25T06:12:22.853Z,1009.26
2022-08-25T06:13:26.920Z,1009.27
2022-08-25T06:14:23.835Z,1009.24
2022-08-25T06:15:22.820Z,1009.21
2022-08-25T06:16:22.835Z,1009.21
2022-08-25T06:17:22.807Z,1009.24
2022-08-25T06:18:22.796Z,1009.25
2022-08-25T06:19:22.786Z,1009.29
2022-08-25T06:20:22.769Z,1009.25
2022-08-25T06:21:22.768Z,1009.24
2022-08-25T06:22:22.748Z,1009.27
2022-08-25T06:23:22.740Z,1009.30
2022-08-25T06:24:22.722Z,1009.33
2022-08-25T06:25:22.711Z,1009.29
2022-08-25T06:26:22.710Z,1009.33
2022-08-25T06:27:22.691Z,1009.33
2022-08-25T06:28:22.712Z,1009.31
2022-08-25T06:29:22.671Z,1009.29
2022-08-25T06:30:25.727Z,1009.35
2022-08-25T06:31:23.697Z,1009.33
2022-08-25T06:32:22.633Z,1009.35
2022-08-25T06:33:22.626Z,1009.38
2022-08-25T06:34:23.986Z,1009.38
2022-08-25T06:35:22.604Z,1009.43
2022-08-25T06:36:22.604Z,1009.43
2022-08-25T06:37:25.141Z,1009.45
2022-08-25T06:38:22.573Z,1009.41
2022-08-25T06:39:22.555Z,1009.42
2022-08-25T06:40:22.598Z,1009.43
2022-08-25T06:41:22.558Z,1009.46
2022-08-25T06:42:22.526Z,1009.44
2022-08-25T06:43:22.525Z,1009.46
2022-08-25T06:44:22.509Z,1009.50
2022-08-25T06:45:22.495Z,1009.48
2022-08-25T06:46:22.520Z,1009.44
2022-08-25T06:47:23.546Z,1009.45
2022-08-25T06:48:22.461Z,1009.46
2022-08-25T06:49:22.460Z,1009.50
2022-08-25T06:50:22.461Z,1009.51
2022-08-25T06:51:22.441Z,1009.53
2022-08-25T06:52:22.421Z,1009.51
2022-08-25T06:53:23.413Z,1009.55
2022-08-25T06:54:22.396Z,1009.54
2022-08-25T06:55:22.391Z,1009.51
2022-08-25T06:56:22.393Z,1009.53
2022-08-25T06:57:22.375Z,1009.55
2022-08-25T06:58:22.354Z,1009.53
2022-08-25T06:59:22.346Z,1009.50
2022-08-25T07:00:22.334Z,1009.47
2022-08-25T07:01:23.370Z,1009.43
2022-08-25T07:02:22.666Z,1009.45
2022-08-25T07:04:22.376Z,1009.41
2022-08-25T07:05:33.713Z,1009.46
2022-08-25T07:06:23.278Z,1009.45
2022-08-25T07:07:22.273Z,1009.40
2022-08-25T07:08:22.252Z,1009.47
2022-08-25T07:09:22.239Z,1009.45
2022-08-25T07:10:22.228Z,1009.44
2022-08-25T07:11:22.231Z,1009.45
2022-08-25T07:12:22.209Z,1009.41
2022-08-25T07:13:22.213Z,1009.41
2022-08-25T07:14:22.201Z,1009.40
2022-08-25T07:15:22.181Z,1009.41
2022-08-25T07:16:22.273Z,1009.39
2022-08-25T07:17:22.163Z,1009.36
2022-08-25T07:18:22.145Z,1009.36
2022-08-25T07:19:22.125Z,1009.38
2022-08-25T07:21:25.001Z,1009.35
2022-08-25T08:10:54.184Z,1009.36
2022-08-25T08:11:31.372Z,1009.29
2022-08-25T08:12:30.330Z,1009.33
2022-08-25T08:13:30.319Z,1009.31
2022-08-25T08:14:30.302Z,1009.37
2022-08-25T08:15:30.509Z,1009.35
2022-08-25T08:16:30.340Z,1009.34
2022-08-25T08:17:30.287Z,1009.33
2022-08-25T08:18:30.264Z,1009.27
2022-08-25T08:19:30.256Z,1009.27
2022-08-25T08:20:30.246Z,1009.25
2022-08-25T08:21:31.244Z,1009.28
2022-08-25T08:22:30.226Z,1009.19
2022-08-25T08:23:30.218Z,1009.25
2022-08-25T08:24:44.063Z,1009.16
2022-08-25T08:25:31.218Z,1009.14
2022-08-25T08:26:55.210Z,1009.07
2022-08-25T08:27:31.182Z,1009.06
2022-08-25T08:28:30.169Z,1009.06
2022-08-25T08:29:30.168Z,1009.05
2022-08-25T08:30:30.168Z,1009.03
2022-08-25T08:31:30.198Z,1008.97
2022-08-25T08:32:40.563Z,1008.97
2022-08-25T08:33:31.123Z,1008.97
2022-08-25T08:34:30.112Z,1008.95
2022-08-25T08:35:30.104Z,1008.92
2022-08-25T08:36:30.111Z,1008.91
2022-08-25T08:37:30.083Z,1008.85
2022-08-25T08:38:30.063Z,1008.91
2022-08-25T08:39:30.063Z,1008.91
2022-08-25T08:40:30.120Z,1008.87
2022-08-25T08:41:30.534Z,1008.81
2022-08-25T08:42:31.045Z,1008.83
2022-08-25T08:43:33.308Z,1008.84
2022-08-25T08:44:30.006Z,1008.86
2022-08-25T08:45:30.006Z,1008.91
2022-08-25T08:46:30.059Z,1008.86
2022-08-25T08:47:30.168Z,1008.86
2022-08-25T08:48:30.171Z,1008.79
2022-08-25T08:49:29.970Z,1008.82
2022-08-25T08:50:33.044Z,1008.76
2022-08-25T08:51:32.803Z,1008.78
2022-08-25T08:52:29.958Z,1008.81
2022-08-25T08:53:34.185Z,1008.76
2022-08-25T08:54:29.923Z,1008.75
2022-08-25T08:55:29.912Z,1008.72
2022-08-25T08:56:30.926Z,1008.73
2022-08-25T08:57:29.912Z,1008.70
2022-08-25T08:58:29.893Z,1008.65
2022-08-25T08:59:31.018Z,1008.66
2022-08-25T09:00:29.862Z,1008.69
2022-08-25T09:01:29.901Z,1008.68
2022-08-25T09:02:38.859Z,1008.72
2022-08-25T09:03:30.880Z,1008.72
2022-08-25T09:04:29.827Z,1008.70
2022-08-25T09:05:29.825Z,1008.71
2022-08-25T09:06:29.807Z,1008.67
2022-08-25T09:07:29.821Z,1008.64
2022-08-25T09:08:29.788Z,1008.62
2022-08-25T09:09:29.790Z,1008.64
2022-08-25T09:10:29.779Z,1008.64
2022-08-25T09:11:30.543Z,1008.65
2022-08-25T09:12:29.760Z,1008.61
2022-08-25T09:13:29.756Z,1008.61
2022-08-25T09:14:30.421Z,1008.57
2022-08-25T09:15:29.730Z,1008.61
2022-08-25T09:16:33.728Z,1008.63
2022-08-25T09:17:29.721Z,1008.61
2022-08-25T09:18:29.703Z,1008.59
2022-08-25T09:19:29.694Z,1008.62
2022-08-25T09:20:29.685Z,1008.64
2022-08-25T09:21:29.684Z,1008.66
2022-08-25T09:22:35.701Z,1008.63
2022-08-25T09:23:30.658Z,1008.61
2022-08-25T09:24:29.654Z,1008.61
2022-08-25T09:26:30.676Z,1008.54
2022-08-25T09:27:29.626Z,1008.53
2022-08-25T09:28:29.608Z,1008.55
2022-08-25T09:29:29.639Z,1008.48
2022-08-25T09:30:29.607Z,1008.48
2022-08-25T09:31:29.979Z,1008.46
2022-08-25T09:32:31.362Z,1008.44
2022-08-25T09:33:29.590Z,1008.42
2022-08-25T09:34:29.561Z,1008.47
2022-08-25T09:35:29.574Z,1008.41
2022-08-25T09:36:30.699Z,1008.44
2022-08-25T09:37:29.593Z,1008.43
2022-08-25T09:38:29.572Z,1008.40
2022-08-25T09:39:29.512Z,1008.39
2022-08-25T09:40:29.539Z,1008.39
2022-08-25T09:41:29.494Z,1008.35
2022-08-25T09:42:29.503Z,1008.39
2022-08-25T09:43:29.630Z,1008.37
2022-08-25T09:44:29.480Z,1008.33
2022-08-25T09:45:29.465Z,1008.32
2022-08-25T09:46:29.542Z,1008.29
2022-08-25T09:47:29.469Z,1008.32
2022-08-25T09:48:29.446Z,1008.28
2022-08-25T09:49:29.427Z,1008.30
2022-08-25T09:50:29.436Z,1008.30
2022-08-25T09:51:30.215Z,1008.27
2022-08-25T09:52:30.418Z,1008.24
2022-08-25T09:53:29.408Z,1008.20
2022-08-25T09:54:43.968Z,1008.24
2022-08-25T09:55:30.378Z,1008.23
2022-08-25T09:56:29.452Z,1008.19
2022-08-25T09:57:29.411Z,1008.18
2022-08-25T09:58:29.360Z,1008.15
2022-08-25T09:59:34.632Z,1008.08
2022-08-25T10:00:30.557Z,1008.14
2022-08-25T10:01:29.382Z,1008.08
2022-08-25T10:02:30.323Z,1008.08
2022-08-25T10:03:29.309Z,1008.13
2022-08-25T10:04:29.329Z,1008.15
2022-08-25T10:05:29.349Z,1008.08
2022-08-25T10:06:29.285Z,1008.10
2022-08-25T10:07:29.313Z,1008.06
2022-08-25T10:08:29.276Z,1008.03
2022-08-25T10:09:29.295Z,1008.07
2022-08-25T10:10:32.385Z,1008.07
2022-08-25T10:11:29.246Z,1008.05
2022-08-25T10:12:29.262Z,1008.01
2022-08-25T10:13:29.248Z,1008.05
2022-08-25T10:14:29.423Z,1007.97
2022-08-25T10:15:30.688Z,1007.98
2022-08-25T10:16:34.099Z,1008.01
2022-08-25T10:17:30.208Z,1008.03
2022-08-25T10:18:29.198Z,1008.03
2022-08-25T10:19:29.180Z,1007.99
2022-08-25T10:20:35.071Z,1007.96
2022-08-25T10:21:30.180Z,1007.96
2022-08-25T10:22:29.220Z,1007.96
2022-08-25T10:23:30.768Z,1007.97
2022-08-25T10:24:29.144Z,1007.99
2022-08-25T10:25:29.131Z,1007.92
2022-08-25T10:26:31.125Z,1007.90
2022-08-25T10:27:30.122Z,1007.85
2022-08-25T10:28:29.233Z,1007.79
2022-08-25T10:29:29.102Z,1007.80
2022-08-25T10:30:29.092Z,1007.76
2022-08-25T10:31:29.149Z,1007.75
2022-08-25T10:32:29.154Z,1007.76
2022-08-25T10:33:29.065Z,1007.76
2022-08-25T10:34:29.083Z,1007.72
2022-08-25T10:35:29.057Z,1007.73
2022-08-25T10:36:29.076Z,1007.75
2022-08-25T10:37:32.851Z,1007.68
2022-08-25T10:38:33.484Z,1007.66
2022-08-25T10:39:34.539Z,1007.64
2022-08-25T10:40:30.088Z,1007.66
2022-08-25T10:41:28.999Z,1007.58
2022-08-25T10:42:29.008Z,1007.57
2022-08-25T10:43:28.982Z,1007.56
2022-08-25T10:44:28.988Z,1007.53
2022-08-25T10:45:28.961Z,1007.51
2022-08-25T10:46:28.996Z,1007.50
2022-08-25T10:47:28.970Z,1007.48
2022-08-25T10:48:28.951Z,1007.47
2022-08-25T10:49:28.953Z,1007.44
2022-08-25T10:50:28.940Z,1007.43
2022-08-25T10:51:28.921Z,1007.35
2022-08-25T10:52:28.931Z,1007.37
2022-08-25T10:53:28.914Z,1007.39
2022-08-25T10:54:28.903Z,1007.33
2022-08-25T10:55:28.919Z,1007.33
2022-08-25T10:56:28.892Z,1007.32
2022-08-25T10:57:28.894Z,1007.31
2022-08-25T10:58:30.724Z,1007.34
2022-08-25T10:59:29.852Z,1007.32
2022-08-25T11:00:31.658Z,1007.34
2022-08-25T11:01:30.583Z,1007.28
2022-08-25T11:02:29.846Z,1007.33
2022-08-25T11:03:28.835Z,1007.29
2022-08-25T11:04:29.836Z,1007.26
2022-08-25T11:05:29.012Z,1007.27
2022-08-25T11:06:28.807Z,1007.27
2022-08-25T11:07:28.808Z,1007.25
2022-08-25T11:08:28.797Z,1007.20
2022-08-25T11:09:28.780Z,1007.24
2022-08-25T11:10:28.779Z,1007.23
2022-08-25T11:11:28.775Z,1007.21
2022-08-25T11:12:28.767Z,1007.20
2022-08-25T11:13:28.754Z,1007.19
2022-08-25T11:14:32.638Z,1007.22
2022-08-25T11:15:29.740Z,1007.21
2022-08-25T11:16:28.769Z,1007.22
2022-08-25T11:18:19.913Z,1007.23
2022-08-25T11:19:19.894Z,1007.22
2022-08-25T11:20:27.072Z,1007.18
2022-08-25T11:21:22.138Z,1007.13
2022-08-25T11:22:19.896Z,1007.15
2022-08-25T11:23:19.867Z,1007.12
2022-08-25T11:24:19.857Z,1007.14
2022-08-25T11:25:19.856Z,1007.13
2022-08-25T11:26:19.859Z,1007.12
2022-08-25T11:27:19.852Z,1007.10
2022-08-25T11:28:19.936Z,1006.86
2022-08-25T11:29:19.819Z,1007.05
2022-08-25T11:30:19.861Z,1007.21
2022-08-25T11:31:19.807Z,1007.44
2022-08-25T11:32:19.809Z,1007.32
2022-08-25T11:33:19.793Z,1007.38
2022-08-25T11:34:19.819Z,1007.34
2022-08-25T11:35:19.780Z,1007.32
2022-08-25T11:36:19.789Z,1007.31
2022-08-25T11:37:19.780Z,1007.25
2022-08-25T11:38:19.773Z,1007.26
2022-08-25T11:39:19.747Z,1007.18
2022-08-25T11:40:19.835Z,1007.16
2022-08-25T11:41:19.732Z,1007.16
2022-08-25T11:42:19.733Z,1007.11
2022-08-25T11:43:19.711Z,1007.07
2022-08-25T11:44:19.706Z,1007.07
2022-08-25T11:45:19.694Z,1007.02
2022-08-25T11:46:19.734Z,1007.01
2022-08-25T11:47:21.226Z,1007.00
2022-08-25T11:48:19.672Z,1007.00
2022-08-25T11:49:19.666Z,1006.96
2022-08-25T11:50:19.656Z,1006.98
2022-08-25T11:51:19.644Z,1007.00
2022-08-25T11:52:19.656Z,1006.97
2022-08-25T11:53:19.656Z,1006.98
2022-08-25T11:54:20.696Z,1006.97
2022-08-25T11:55:23.102Z,1006.98
2022-08-25T11:56:19.609Z,1006.84
2022-08-25T11:57:19.598Z,1007.04
2022-08-25T11:58:19.617Z,1007.06
2022-08-25T11:59:19.586Z,1007.08
2022-08-25T12:00:19.579Z,1007.03
2022-08-25T12:01:19.560Z,1007.02
2022-08-25T12:02:19.580Z,1007.01
2022-08-25T12:03:19.549Z,1006.92
2022-08-25T12:04:19.596Z,1006.91
2022-08-25T12:05:19.722Z,1006.85
2022-08-25T12:06:19.533Z,1006.84
2022-08-25T12:07:19.542Z,1006.80
2022-08-25T12:08:19.533Z,1006.80
2022-08-25T12:09:19.502Z,1006.79
2022-08-25T12:10:19.542Z,1006.75
2022-08-25T12:11:19.483Z,1006.77
2022-08-25T12:12:19.491Z,1006.72
2022-08-25T12:13:19.476Z,1006.72
2022-08-25T12:14:19.476Z,1006.69
2022-08-25T12:15:19.445Z,1006.73
2022-08-25T12:16:19.520Z,1006.65
2022-08-25T12:17:19.436Z,1006.68
2022-08-25T12:18:19.434Z,1006.69
2022-08-25T12:19:19.426Z,1006.68
2022-08-25T12:20:19.451Z,1006.67
2022-08-25T12:21:19.427Z,1006.66
2022-08-25T12:22:19.407Z,1006.62
2022-08-25T12:23:19.398Z,1006.66
2022-08-25T12:24:19.396Z,1006.65
2022-08-25T12:25:19.384Z,1006.65
2022-08-25T12:26:19.385Z,1006.63
2022-08-25T12:27:19.358Z,1006.63
2022-08-25T12:28:19.537Z,1006.60
2022-08-25T12:29:19.350Z,1006.63
2022-08-25T12:30:20.954Z,1006.56
2022-08-25T12:31:19.434Z,1006.63
2022-08-25T12:32:19.363Z,1006.60
2022-08-25T12:33:19.320Z,1006.64
2022-08-25T12:34:19.310Z,1006.59
2022-08-25T12:35:20.432Z,1006.61
2022-08-25T12:36:19.281Z,1006.60
2022-08-25T12:37:19.303Z,1006.59
2022-08-25T12:38:19.275Z,1006.61
2022-08-25T12:39:19.274Z,1006.59
2022-08-25T12:40:20.330Z,1006.59
2022-08-25T12:41:19.268Z,1006.57
2022-08-25T12:42:21.973Z,1006.55
2022-08-25T12:43:20.294Z,1006.58
2022-08-25T12:44:19.225Z,1006.53
2022-08-25T12:45:19.222Z,1006.53
2022-08-25T12:46:19.300Z,1006.57
2022-08-25T12:47:19.208Z,1006.53
2022-08-25T12:48:19.187Z,1006.51
2022-08-25T12:49:19.214Z,1006.48
2022-08-25T12:50:19.178Z,1006.50
2022-08-25T12:51:19.188Z,1006.47
2022-08-25T12:52:19.184Z,1006.46
2022-08-25T12:53:19.181Z,1006.38
2022-08-25T12:54:22.603Z,1006.45
2022-08-25T12:55:19.140Z,1006.39
2022-08-25T12:56:19.144Z,1006.38
2022-08-25T12:57:19.130Z,1006.40
2022-08-25T12:58:20.129Z,1006.41